EMV Xiv — EA5630 — position and weather

sailwx.info

Track history (hours):
 
Tides and Currents Weather Stations Pressure Air Temp Water Temp Dewpoint Dewpoint Depression Visibility Wind Speed Wind Dir Waves Ship Positions

EMV Xiv

Last reported at 2017-Oct-04 08:26 UTC. Time now 2017-Nov-23 05:41 UTC.
Position N 39°34' E 002°39'.
Warning: this ship's position is 49 days out of date.

Length 13 m.

Type: Sailing vessel. MMSI: 225981217.

Date/timePositionNaut miles runAvg speedWind from/ knotsBaromVisibWave heightAir tempDewpointWater temp
2017-Oct-04 08:26N 39°34' E 002°39'1 0.1
2017-Oct-03 14:00N 39°33' E 002°39'3 6.0
2017-Oct-03 13:30N 39°32' E 002°43'0 0.0
2017-Oct-03 12:59N 39°32' E 002°43'2 3.8
2017-Oct-03 12:30N 39°30' E 002°43'3 5.2
2017-Oct-03 12:00N 39°28' E 002°42'2 3.3
2017-Oct-03 11:30N 39°26' E 002°42'2 3.9
2017-Oct-03 11:00N 39°24' E 002°43'3 5.7
2017-Oct-03 10:30N 39°22' E 002°45'1 1.9
2017-Oct-03 10:00N 39°21' E 002°46'2 3.8
2017-Oct-03 09:31N 39°20' E 002°47'2 4.9
2017-Oct-03 09:00N 39°18' E 002°49'1 0.0
2017-Oct-01 10:59N 39°18' E 002°51'62 1.4
2017-Sep-29 13:12N 38°58' E 001°35'1 2.5
2017-Sep-29 13:00N 38°58' E 001°35'4 3.9
2017-Sep-29 11:52N 38°55' E 001°32'2 4.5
2017-Sep-29 11:29N 38°53' E 001°30'2 4.7
2017-Sep-29 10:59N 38°51' E 001°29'2 4.6
2017-Sep-29 10:30N 38°53' E 001°27'2 0.1
2017-Sep-28 13:16N 38°55' E 001°27'0 0.3
2017-Sep-28 13:00N 38°55' E 001°27'1 2.4
2017-Sep-28 12:28N 38°54' E 001°27'3 6.0
2017-Sep-28 12:00N 38°51' E 001°27'  
2017-Sep-25 18:32N 39°07' E 001°31'0 0.2
2017-Sep-25 18:03N 39°07' E 001°31'0 3.7
2017-Sep-25 17:58N 39°07' E 001°31'3 6.8
2017-Sep-25 17:29N 39°08' E 001°35'3 6.9
2017-Sep-25 17:00N 39°09' E 001°39'3 6.5
2017-Sep-25 16:29N 39°11' E 001°43'3 5.3
2017-Sep-25 16:00N 39°12' E 001°46'2 4.4
2017-Sep-25 15:29N 39°12' E 001°49'3 5.0
2017-Sep-25 14:59N 39°13' E 001°52'2 4.5
2017-Sep-25 14:30N 39°14' E 001°54'2 3.8
2017-Sep-25 13:59N 39°14' E 001°57'2 4.2
2017-Sep-25 13:26N 39°14' E 001°60'2 5.1
2017-Sep-25 12:58N 39°14' E 002°03'2 5.0
2017-Sep-25 12:29N 39°14' E 002°06'1 2.9
2017-Sep-25 11:58N 39°15' E 002°07'3 7.2
2017-Sep-25 11:30N 39°18' E 002°05'3 6.6
2017-Sep-25 10:59N 39°21' E 002°03'7 5.3
2017-Sep-25 09:40N 39°27' E 001°59'1 2.3
2017-Sep-25 09:21N 39°28' E 001°59'2 3.9
2017-Sep-25 08:57N 39°28' E 002°01'3 4.4
2017-Sep-25 08:19N 39°28' E 002°05'2 5.0
2017-Sep-25 07:50N 39°28' E 002°08'2 5.1
2017-Sep-25 07:30N 39°28' E 002°10'2 4.5
2017-Sep-25 06:59N 39°29' E 002°13'2 3.7
2017-Sep-25 06:27N 39°30' E 002°16'7 0.4
2017-Sep-24 12:58N 39°31' E 002°25'1 3.1
2017-Sep-24 12:30N 39°29' E 002°25'2 3.8
2017-Sep-24 11:59N 39°28' E 002°26'3 5.4
2017-Sep-24 11:29N 39°26' E 002°29'3 5.3
2017-Sep-24 11:00N 39°25' E 002°32'3 5.7
2017-Sep-24 10:29N 39°24' E 002°35'1 3.1
2017-Sep-24 10:00N 39°25' E 002°37'3 5.4
2017-Sep-24 09:30N 39°27' E 002°37'2 4.8
2017-Sep-24 09:00N 39°30' E 002°37'2 4.4
2017-Sep-24 08:30N 39°32' E 002°37'  
Track history (hours):
 
Tides and Currents Weather Stations Pressure Air Temp Water Temp Dewpoint Dewpoint Depression Visibility Wind Speed Wind Dir Waves Ship Positions

EMV Xiv

Last reported at 2017-Oct-04 08:26 UTC. Time now 2017-Nov-23 05:41 UTC.
Position N 39°34' E 002°39'.
Warning: this ship's position is 49 days out of date.

Length 13 m.

Type: Sailing vessel. MMSI: 225981217.

Date/timePositionNaut miles runAvg speedWind from/ knotsBaromVisibWave heightAir tempDewpointWater temp
2017-Oct-04 08:26N 39°34' E 002°39'1 0.1
2017-Oct-03 14:00N 39°33' E 002°39'3 6.0
2017-Oct-03 13:30N 39°32' E 002°43'0 0.0
2017-Oct-03 12:59N 39°32' E 002°43'2 3.8
2017-Oct-03 12:30N 39°30' E 002°43'3 5.2
2017-Oct-03 12:00N 39°28' E 002°42'2 3.3
2017-Oct-03 11:30N 39°26' E 002°42'2 3.9
2017-Oct-03 11:00N 39°24' E 002°43'3 5.7
2017-Oct-03 10:30N 39°22' E 002°45'1 1.9
2017-Oct-03 10:00N 39°21' E 002°46'2 3.8
2017-Oct-03 09:31N 39°20' E 002°47'2 4.9
2017-Oct-03 09:00N 39°18' E 002°49'1 0.0
2017-Oct-01 10:59N 39°18' E 002°51'62 1.4
2017-Sep-29 13:12N 38°58' E 001°35'1 2.5
2017-Sep-29 13:00N 38°58' E 001°35'4 3.9
2017-Sep-29 11:52N 38°55' E 001°32'2 4.5
2017-Sep-29 11:29N 38°53' E 001°30'2 4.7
2017-Sep-29 10:59N 38°51' E 001°29'2 4.6
2017-Sep-29 10:30N 38°53' E 001°27'2 0.1
2017-Sep-28 13:16N 38°55' E 001°27'0 0.3
2017-Sep-28 13:00N 38°55' E 001°27'1 2.4
2017-Sep-28 12:28N 38°54' E 001°27'3 6.0
2017-Sep-28 12:00N 38°51' E 001°27'  
2017-Sep-25 18:32N 39°07' E 001°31'0 0.2
2017-Sep-25 18:03N 39°07' E 001°31'0 3.7
2017-Sep-25 17:58N 39°07' E 001°31'3 6.8
2017-Sep-25 17:29N 39°08' E 001°35'3 6.9
2017-Sep-25 17:00N 39°09' E 001°39'3 6.5
2017-Sep-25 16:29N 39°11' E 001°43'3 5.3
2017-Sep-25 16:00N 39°12' E 001°46'2 4.4
2017-Sep-25 15:29N 39°12' E 001°49'3 5.0
2017-Sep-25 14:59N 39°13' E 001°52'2 4.5
2017-Sep-25 14:30N 39°14' E 001°54'2 3.8
2017-Sep-25 13:59N 39°14' E 001°57'2 4.2
2017-Sep-25 13:26N 39°14' E 001°60'2 5.1
2017-Sep-25 12:58N 39°14' E 002°03'2 5.0
2017-Sep-25 12:29N 39°14' E 002°06'1 2.9
2017-Sep-25 11:58N 39°15' E 002°07'3 7.2
2017-Sep-25 11:30N 39°18' E 002°05'3 6.6
2017-Sep-25 10:59N 39°21' E 002°03'7 5.3
2017-Sep-25 09:40N 39°27' E 001°59'1 2.3
2017-Sep-25 09:21N 39°28' E 001°59'2 3.9
2017-Sep-25 08:57N 39°28' E 002°01'3 4.4
2017-Sep-25 08:19N 39°28' E 002°05'2 5.0
2017-Sep-25 07:50N 39°28' E 002°08'2 5.1
2017-Sep-25 07:30N 39°28' E 002°10'2 4.5
2017-Sep-25 06:59N 39°29' E 002°13'2 3.7
2017-Sep-25 06:27N 39°30' E 002°16'7 0.4
2017-Sep-24 12:58N 39°31' E 002°25'1 3.1
2017-Sep-24 12:30N 39°29' E 002°25'2 3.8
2017-Sep-24 11:59N 39°28' E 002°26'3 5.4
2017-Sep-24 11:29N 39°26' E 002°29'3 5.3
2017-Sep-24 11:00N 39°25' E 002°32'3 5.7
2017-Sep-24 10:29N 39°24' E 002°35'1 3.1
2017-Sep-24 10:00N 39°25' E 002°37'3 5.4
2017-Sep-24 09:30N 39°27' E 002°37'2 4.8
2017-Sep-24 09:00N 39°30' E 002°37'2 4.4
2017-Sep-24 08:30N 39°32' E 002°37'  

Dump ship's entire track history